createdAt,value
2023-03-17T00:00:10.246Z,99494.78
2023-03-17T00:00:54.631Z,99464.81
2023-03-17T00:01:36.477Z,99473.19
2023-03-17T00:02:18.881Z,99475.69
2023-03-17T00:03:01.351Z,99477.47
2023-03-17T00:03:45.572Z,99486.34
2023-03-17T00:04:27.908Z,99472.22
2023-03-17T00:05:25.697Z,99478.78
2023-03-17T00:06:16.036Z,99463.81
2023-03-17T00:06:58.014Z,99472.53
2023-03-17T00:07:39.717Z,99470.06
2023-03-17T00:08:27.526Z,99478.28
2023-03-17T00:09:17.844Z,99474.16
2023-03-17T00:09:59.592Z,99458.72
2023-03-17T00:10:41.422Z,99471.91
2023-03-17T00:11:23.950Z,99472.88
2023-03-17T00:12:10.790Z,99478.16
2023-03-17T00:12:55.100Z,99460.38
2023-03-17T00:13:36.793Z,99482.59
2023-03-17T00:14:19.902Z,99474.84
2023-03-17T00:15:02.254Z,99476.81
2023-03-17T00:15:44.976Z,99476.16
2023-03-17T00:16:28.183Z,99471.38
2023-03-17T00:17:14.019Z,99479.94
2023-03-17T00:17:56.805Z,99465.94
2023-03-17T00:18:38.734Z,99465.97
2023-03-17T00:19:33.183Z,99455.75
2023-03-17T00:20:28.184Z,99480.09
2023-03-17T00:21:14.743Z,99483.41
2023-03-17T00:21:57.590Z,99470.09
2023-03-17T00:22:39.903Z,99461.03
2023-03-17T00:23:24.400Z,99467.13
2023-03-17T00:24:06.490Z,99477.81
2023-03-17T00:24:48.395Z,99474.69
2023-03-17T00:25:34.832Z,99477.47
2023-03-17T00:26:16.595Z,99467.28
2023-03-17T00:26:58.947Z,99460.84
2023-03-17T00:27:40.618Z,99468.25
2023-03-17T00:28:25.050Z,99485.69
2023-03-17T00:29:08.366Z,99484.38
2023-03-17T00:29:50.204Z,99485.19
2023-03-17T00:30:33.765Z,99459.38
2023-03-17T00:31:21.372Z,99491.94
2023-03-17T00:32:03.807Z,99483.72
2023-03-17T00:32:46.713Z,99490.94
2023-03-17T00:33:34.446Z,99501.31
2023-03-17T00:34:18.654Z,99491.94
2023-03-17T00:35:05.155Z,99495.22
2023-03-17T00:35:46.937Z,99500.34
2023-03-17T00:36:32.631Z,99485.69
2023-03-17T00:37:17.953Z,99497.19
2023-03-17T00:37:59.926Z,99477.13
2023-03-17T00:38:41.666Z,99498.19
2023-03-17T00:39:25.384Z,99500.63
2023-03-17T00:40:19.320Z,99490.91
2023-03-17T00:41:01.094Z,99484.19
2023-03-17T00:41:43.711Z,99469.91
2023-03-17T00:42:25.588Z,99489.28
2023-03-17T00:43:08.398Z,99471.19
2023-03-17T00:43:51.357Z,99468.38
2023-03-17T00:44:34.590Z,99487.28
2023-03-17T00:45:16.883Z,99474.28
2023-03-17T00:45:58.584Z,99482.84
2023-03-17T00:46:41.527Z,99481.69
2023-03-17T00:47:23.720Z,99483.34
2023-03-17T00:48:15.060Z,99459.66
2023-03-17T00:48:58.374Z,99483.84
2023-03-17T00:49:40.259Z,99472.16
2023-03-17T00:50:28.249Z,99481.88
2023-03-17T00:51:10.684Z,99467.69
2023-03-17T00:51:52.907Z,99458.97
2023-03-17T00:52:36.511Z,99474.59
2023-03-17T00:53:21.600Z,99470.81
2023-03-17T00:54:03.522Z,99479.03
2023-03-17T00:54:45.331Z,99461.31
2023-03-17T00:55:27.075Z,99470.50
2023-03-17T00:56:17.848Z,99480.03
2023-03-17T00:56:59.562Z,99471.50
2023-03-17T00:57:42.922Z,99472.31
2023-03-17T00:58:32.869Z,99471.13
2023-03-17T00:59:26.254Z,99479.22
2023-03-17T01:00:17.728Z,99472.81
2023-03-17T01:00:59.975Z,99468.19
2023-03-17T01:01:41.927Z,99474.78
2023-03-17T01:02:24.299Z,99478.09
2023-03-17T01:03:11.364Z,99474.81
2023-03-17T01:03:53.514Z,99485.84
2023-03-17T01:04:35.388Z,99489.63
2023-03-17T01:05:17.171Z,99467.59
2023-03-17T01:06:00.427Z,99469.25
2023-03-17T01:06:43.173Z,99468.06
2023-03-17T01:07:25.216Z,99468.75
2023-03-17T01:08:07.812Z,99473.72
2023-03-17T01:08:50.225Z,99469.94
2023-03-17T01:09:33.816Z,99463.34
2023-03-17T01:10:25.995Z,99466.28
2023-03-17T01:11:18.711Z,99464.50
2023-03-17T01:12:02.153Z,99451.16
2023-03-17T01:12:45.616Z,99456.41
2023-03-17T01:13:28.385Z,99456.91
2023-03-17T01:14:12.565Z,99456.91
2023-03-17T01:14:54.664Z,99439.34
2023-03-17T01:15:37.324Z,99444.75
2023-03-17T01:16:19.116Z,99435.03
2023-03-17T01:17:01.169Z,99443.94
2023-03-17T01:17:43.461Z,99449.03
2023-03-17T01:18:25.764Z,99416.00
2023-03-17T01:19:09.187Z,99412.84
2023-03-17T01:19:51.319Z,99429.44
2023-03-17T01:20:34.642Z,99444.75
2023-03-17T01:21:16.416Z,99428.28
2023-03-17T01:21:58.248Z,99424.00
2023-03-17T01:22:40.060Z,99444.41
2023-03-17T01:23:22.139Z,99432.22
2023-03-17T01:24:04.833Z,99441.28
2023-03-17T01:24:48.112Z,99433.38
2023-03-17T01:25:30.509Z,99431.03
2023-03-17T01:26:12.571Z,99440.09
2023-03-17T01:26:54.320Z,99438.94
2023-03-17T01:27:36.621Z,99439.94
2023-03-17T01:28:20.208Z,99430.84
2023-03-17T01:29:02.099Z,99434.31
2023-03-17T01:29:43.869Z,99430.69
2023-03-17T01:30:37.423Z,99438.41
2023-03-17T01:31:19.574Z,99425.13
2023-03-17T01:32:01.486Z,99425.78
2023-03-17T01:32:43.428Z,99398.31
2023-03-17T01:33:25.647Z,99436.59
2023-03-17T01:34:07.477Z,99441.84
2023-03-17T01:34:49.252Z,99430.03
2023-03-17T01:35:31.436Z,99432.00
2023-03-17T01:36:13.301Z,99418.50
2023-03-17T01:36:55.037Z,99421.78
2023-03-17T01:37:37.663Z,99424.91
2023-03-17T01:38:19.373Z,99436.25
2023-03-17T01:39:01.447Z,99417.50
2023-03-17T01:39:43.198Z,99416.53
2023-03-17T01:40:28.128Z,99423.59
2023-03-17T01:41:10.480Z,99431.31
2023-03-17T01:41:56.730Z,99435.59
2023-03-17T01:42:39.800Z,99427.41
2023-03-17T01:43:24.684Z,99435.44
2023-03-17T01:44:07.380Z,99410.59
2023-03-17T01:45:28.518Z,99438.06
2023-03-17T01:46:20.737Z,99431.81
2023-03-17T01:47:03.405Z,99420.47
2023-03-17T01:47:45.473Z,99426.41
2023-03-17T01:48:29.088Z,99431.50
2023-03-17T01:49:30.770Z,99426.03
2023-03-17T01:50:13.121Z,99427.88
2023-03-17T01:50:55.931Z,99424.91
2023-03-17T01:51:52.582Z,99420.16
2023-03-17T01:52:39.682Z,99417.38
2023-03-17T01:53:22.733Z,99414.59
2023-03-17T01:54:11.992Z,99400.94
2023-03-17T01:54:56.401Z,99396.88
2023-03-17T01:55:38.524Z,99405.41
2023-03-17T01:56:21.671Z,99391.25
2023-03-17T01:57:39.713Z,99398.44
2023-03-17T01:58:24.207Z,99405.38
2023-03-17T01:59:09.659Z,99402.41
2023-03-17T01:59:55.484Z,99403.38
2023-03-17T02:00:38.043Z,99381.53
2023-03-17T02:01:33.476Z,99407.97
2023-03-17T02:02:30.881Z,99408.13
2023-03-17T02:03:13.092Z,99408.63
2023-03-17T02:04:25.802Z,99417.19
2023-03-17T02:05:10.910Z,99398.25
2023-03-17T02:06:00.964Z,99396.78
2023-03-17T02:06:56.795Z,99388.53
2023-03-17T02:07:40.990Z,99393.81
2023-03-17T02:08:28.898Z,99398.09
2023-03-17T02:09:11.018Z,99384.25
2023-03-17T02:09:54.466Z,99391.84
2023-03-17T02:10:41.203Z,99389.69
2023-03-17T02:11:23.940Z,99369.97
2023-03-17T02:12:06.954Z,99390.88
2023-03-17T02:12:53.462Z,99393.69
2023-03-17T02:13:36.911Z,99378.69
2023-03-17T02:14:18.968Z,99360.63
2023-03-17T02:15:01.129Z,99396.81
2023-03-17T02:15:49.421Z,99381.16
2023-03-17T02:16:32.704Z,99394.63
2023-03-17T02:17:14.782Z,99389.53
2023-03-17T02:17:57.871Z,99393.16
2023-03-17T02:18:39.583Z,99397.25
2023-03-17T02:19:22.080Z,99400.38
2023-03-17T02:20:17.043Z,99399.06
2023-03-17T02:21:36.070Z,99408.94
2023-03-17T02:22:19.011Z,99394.78
2023-03-17T02:23:01.863Z,99412.56
2023-03-17T02:23:43.706Z,99405.50
2023-03-17T02:24:48.156Z,99384.31
2023-03-17T02:25:30.910Z,99398.00
2023-03-17T02:26:12.897Z,99385.69
2023-03-17T02:26:58.279Z,99398.03
2023-03-17T02:27:45.276Z,99383.22
2023-03-17T02:28:30.911Z,99387.88
2023-03-17T02:29:13.072Z,99390.47
2023-03-17T02:29:56.144Z,99383.25
2023-03-17T02:30:37.977Z,99384.72
2023-03-17T02:31:21.070Z,99367.63
2023-03-17T02:32:04.388Z,99387.03
2023-03-17T02:32:46.355Z,99367.97
2023-03-17T02:33:28.396Z,99383.72
2023-03-17T02:34:10.294Z,99370.72
2023-03-17T02:34:52.210Z,99368.09
2023-03-17T02:35:33.963Z,99383.19
2023-03-17T02:36:16.241Z,99369.22
2023-03-17T02:37:00.350Z,99356.56
2023-03-17T02:37:43.693Z,99360.03
2023-03-17T02:38:26.017Z,99384.16
2023-03-17T02:39:08.492Z,99383.66
2023-03-17T02:39:50.183Z,99386.31
2023-03-17T02:40:32.551Z,99380.38
2023-03-17T02:41:14.396Z,99376.94
2023-03-17T02:41:56.647Z,99386.97
2023-03-17T02:42:39.361Z,99390.25
2023-03-17T02:43:21.056Z,99391.72
2023-03-17T02:44:02.990Z,99378.91
2023-03-17T02:44:45.423Z,99380.72
2023-03-17T02:45:27.550Z,99395.16
2023-03-17T02:46:09.253Z,99395.16
2023-03-17T02:46:51.070Z,99377.09
2023-03-17T02:47:33.006Z,99385.66
2023-03-17T02:48:14.841Z,99407.88
2023-03-17T02:48:57.003Z,99338.00
2023-03-17T02:49:41.440Z,99386.16
2023-03-17T02:50:26.226Z,99391.75
2023-03-17T02:51:07.951Z,99376.47
2023-03-17T02:51:49.915Z,99392.44
2023-03-17T02:52:31.965Z,99373.53
2023-03-17T02:53:14.022Z,99389.16
2023-03-17T02:53:55.995Z,99369.59
2023-03-17T02:54:38.291Z,99372.06
2023-03-17T02:55:20.689Z,99385.53
2023-03-17T02:56:02.509Z,99369.94
2023-03-17T02:56:44.546Z,99382.75
2023-03-17T02:57:26.568Z,99375.34
2023-03-17T02:58:08.525Z,99373.38
2023-03-17T02:58:51.109Z,99357.78
2023-03-17T02:59:33.193Z,99355.63
2023-03-17T03:00:15.446Z,99348.56
2023-03-17T03:00:57.837Z,99372.91
2023-03-17T03:01:39.864Z,99386.88
2023-03-17T03:02:21.833Z,99381.94
2023-03-17T03:03:03.625Z,99370.59
2023-03-17T03:03:45.901Z,99382.09
2023-03-17T03:04:27.900Z,99381.25
2023-03-17T03:05:10.688Z,99382.91
2023-03-17T03:05:53.087Z,99386.38
2023-03-17T03:06:36.723Z,99385.03
2023-03-17T03:07:18.926Z,99385.69
2023-03-17T03:08:00.926Z,99384.25
2023-03-17T03:08:42.682Z,99380.97
2023-03-17T03:09:25.676Z,99374.69
2023-03-17T03:10:07.764Z,99381.28
2023-03-17T03:10:49.568Z,99375.84
2023-03-17T03:11:31.665Z,99370.28
2023-03-17T03:12:13.901Z,99361.34
2023-03-17T03:12:55.899Z,99373.84
2023-03-17T03:13:37.740Z,99376.47
2023-03-17T03:14:19.549Z,99373.84
2023-03-17T03:15:01.360Z,99363.50
2023-03-17T03:15:43.557Z,99371.38
2023-03-17T03:16:25.595Z,99356.75
2023-03-17T03:17:07.383Z,99351.31
2023-03-17T03:17:49.213Z,99364.94
2023-03-17T03:18:31.292Z,99356.59
2023-03-17T03:19:13.147Z,99369.25
2023-03-17T03:19:55.371Z,99370.75
2023-03-17T03:20:37.103Z,99357.91
2023-03-17T03:21:19.106Z,99365.63
2023-03-17T03:22:01.066Z,99368.13
2023-03-17T03:22:42.764Z,99357.75
2023-03-17T03:23:24.463Z,99351.47
2023-03-17T03:24:07.243Z,99341.94
2023-03-17T03:24:48.922Z,99346.22
2023-03-17T03:25:30.817Z,99346.22
2023-03-17T03:26:12.611Z,99363.66
2023-03-17T03:26:54.497Z,99365.28
2023-03-17T03:27:36.894Z,99364.31
2023-03-17T03:28:19.193Z,99347.53
2023-03-17T03:29:01.562Z,99343.25
2023-03-17T03:29:46.459Z,99337.84
2023-03-17T03:30:28.908Z,99355.09
2023-03-17T03:31:11.898Z,99331.09
2023-03-17T03:31:53.634Z,99358.22
2023-03-17T03:32:35.518Z,99351.47
2023-03-17T03:33:17.627Z,99340.81
2023-03-17T03:33:59.467Z,99347.88
2023-03-17T03:34:41.362Z,99346.22
2023-03-17T03:35:23.058Z,99356.41
2023-03-17T03:36:04.975Z,99339.81
2023-03-17T03:36:46.749Z,99362.56
2023-03-17T03:37:28.481Z,99351.66
2023-03-17T03:38:12.328Z,99342.59
2023-03-17T03:38:54.353Z,99355.09
2023-03-17T03:39:36.073Z,99345.41
2023-03-17T03:40:17.827Z,99375.16
2023-03-17T03:40:59.639Z,99365.63
2023-03-17T03:41:41.752Z,99370.72
2023-03-17T03:42:23.494Z,99358.50
2023-03-17T03:43:16.268Z,99371.69
2023-03-17T03:44:03.392Z,99371.81
2023-03-17T03:44:45.311Z,99370.31
2023-03-17T03:45:27.282Z,99362.91
2023-03-17T03:46:09.194Z,99350.72
2023-03-17T03:46:51.779Z,99348.19
2023-03-17T03:47:33.638Z,99338.47
2023-03-17T03:48:15.621Z,99340.22
2023-03-17T03:48:57.334Z,99352.06
2023-03-17T03:49:39.123Z,99348.44
2023-03-17T03:50:21.847Z,99357.97
2023-03-17T03:51:03.853Z,99357.13
2023-03-17T03:51:45.790Z,99353.03
2023-03-17T03:52:27.650Z,99342.38
2023-03-17T03:53:09.962Z,99332.56
2023-03-17T03:53:51.750Z,99339.78
2023-03-17T03:54:33.510Z,99355.91
2023-03-17T03:55:15.997Z,99351.50
2023-03-17T03:56:00.544Z,99349.81
2023-03-17T03:56:42.317Z,99337.16
2023-03-17T03:57:24.112Z,99350.13
2023-03-17T03:58:06.702Z,99336.44
2023-03-17T03:58:48.523Z,99338.69
2023-03-17T03:59:30.483Z,99335.00
2023-03-17T04:00:14.335Z,99351.56
2023-03-17T04:00:57.013Z,99333.81
2023-03-17T04:01:40.069Z,99338.53
2023-03-17T04:02:21.849Z,99353.34
2023-03-17T04:03:03.691Z,99355.13
2023-03-17T04:03:47.379Z,99352.34
2023-03-17T04:04:29.493Z,99343.81
2023-03-17T04:05:11.366Z,99340.25
2023-03-17T04:05:53.153Z,99344.91
2023-03-17T04:06:34.958Z,99337.00
2023-03-17T04:07:16.694Z,99344.53
2023-03-17T04:07:58.560Z,99331.00
2023-03-17T04:08:40.309Z,99337.91
2023-03-17T04:09:22.368Z,99331.81
2023-03-17T04:10:04.491Z,99350.16
2023-03-17T04:10:46.457Z,99340.00
2023-03-17T04:11:28.193Z,99342.97
2023-03-17T04:12:10.439Z,99338.84
2023-03-17T04:12:52.356Z,99320.81
2023-03-17T04:13:34.443Z,99354.03
2023-03-17T04:14:16.229Z,99334.47
2023-03-17T04:14:57.925Z,99347.63
2023-03-17T04:15:39.798Z,99344.22
2023-03-17T04:16:21.612Z,99335.03
2023-03-17T04:17:04.668Z,99336.53
2023-03-17T04:17:47.062Z,99346.53
2023-03-17T04:18:28.836Z,99337.81
2023-03-17T04:19:11.273Z,99340.44
2023-03-17T04:19:53.085Z,99342.22
2023-03-17T04:20:34.753Z,99334.50
2023-03-17T04:21:18.883Z,99339.75
2023-03-17T04:22:03.310Z,99345.69
2023-03-17T04:22:45.053Z,99318.34
2023-03-17T04:23:27.678Z,99331.78
2023-03-17T04:24:09.531Z,99340.00
2023-03-17T04:24:51.356Z,99346.31
2023-03-17T04:25:33.248Z,99326.16
2023-03-17T04:26:14.926Z,99337.81
2023-03-17T04:26:56.950Z,99344.19
2023-03-17T04:27:38.686Z,99327.16
2023-03-17T04:28:20.995Z,99344.06
2023-03-17T04:29:02.967Z,99337.56
2023-03-17T04:29:45.025Z,99327.84
2023-03-17T04:30:26.698Z,99344.59
2023-03-17T04:31:11.563Z,99341.94
2023-03-17T04:31:53.679Z,99344.03
2023-03-17T04:32:36.083Z,99331.44
2023-03-17T04:33:18.976Z,99322.84
2023-03-17T04:34:01.038Z,99327.41
2023-03-17T04:34:42.920Z,99328.69
2023-03-17T04:35:24.657Z,99344.63
2023-03-17T04:36:07.802Z,99346.75
2023-03-17T04:36:49.646Z,99328.09
2023-03-17T04:37:33.446Z,99295.69
2023-03-17T04:38:16.334Z,99336.31
2023-03-17T04:38:58.228Z,99328.94
2023-03-17T04:39:40.369Z,99330.94
2023-03-17T04:40:23.556Z,99334.75
2023-03-17T04:41:05.437Z,99320.84
2023-03-17T04:41:47.163Z,99314.78
2023-03-17T04:42:28.832Z,99311.53
2023-03-17T04:43:10.526Z,99320.53
2023-03-17T04:43:52.321Z,99333.63
2023-03-17T04:44:34.448Z,99322.63
2023-03-17T04:45:16.731Z,99329.56
2023-03-17T04:45:58.483Z,99326.78
2023-03-17T04:46:40.463Z,99313.53
2023-03-17T04:47:22.154Z,99338.06
2023-03-17T04:48:04.196Z,99329.56
2023-03-17T04:48:46.350Z,99331.41
2023-03-17T04:49:28.484Z,99332.09
2023-03-17T04:50:10.804Z,99329.31
2023-03-17T04:50:52.593Z,99309.28
2023-03-17T04:51:36.766Z,99330.34
2023-03-17T04:52:18.516Z,99339.53
2023-03-17T04:53:00.302Z,99335.75
2023-03-17T04:53:42.874Z,99326.66
2023-03-17T04:54:24.720Z,99333.47
2023-03-17T04:55:08.312Z,99327.22
2023-03-17T04:55:50.439Z,99342.34
2023-03-17T04:56:32.434Z,99341.66
2023-03-17T04:57:14.256Z,99315.63
2023-03-17T04:57:55.985Z,99312.81
2023-03-17T04:58:38.335Z,99336.59
2023-03-17T04:59:20.168Z,99318.97
2023-03-17T05:00:01.986Z,99327.81
2023-03-17T05:00:44.008Z,99320.00
2023-03-17T05:01:26.375Z,99307.81
2023-03-17T05:02:08.177Z,99334.41
2023-03-17T05:02:49.849Z,99327.59
2023-03-17T05:03:33.209Z,99324.03
2023-03-17T05:04:28.886Z,99316.81
2023-03-17T05:05:13.092Z,99327.97
2023-03-17T05:05:55.445Z,99333.78
2023-03-17T05:06:37.370Z,99339.00
2023-03-17T05:07:19.152Z,99305.41
2023-03-17T05:08:00.895Z,99312.97
2023-03-17T05:08:46.005Z,99334.69
2023-03-17T05:09:28.652Z,99336.75
2023-03-17T05:10:12.356Z,99327.16
2023-03-17T05:10:57.658Z,99338.19
2023-03-17T05:11:41.365Z,99344.53
2023-03-17T05:12:23.095Z,99343.72
2023-03-17T05:13:04.777Z,99346.47
2023-03-17T05:13:46.953Z,99342.34
2023-03-17T05:14:28.653Z,99347.56
2023-03-17T05:15:11.318Z,99342.41
2023-03-17T05:15:54.957Z,99350.78
2023-03-17T05:16:36.710Z,99356.19
2023-03-17T05:17:18.543Z,99357.28
2023-03-17T05:18:00.453Z,99351.00
2023-03-17T05:18:43.645Z,99354.41
2023-03-17T05:19:25.695Z,99349.50
2023-03-17T05:20:09.420Z,99369.53
2023-03-17T05:20:51.315Z,99351.13
2023-03-17T05:21:33.180Z,99358.94
2023-03-17T05:22:14.964Z,99351.97
2023-03-17T05:22:59.703Z,99352.34
2023-03-17T05:23:41.877Z,99358.25
2023-03-17T05:24:23.715Z,99363.34
2023-03-17T05:25:06.632Z,99361.91
2023-03-17T05:25:49.062Z,99353.84
2023-03-17T05:26:31.063Z,99368.66
2023-03-17T05:27:12.816Z,99351.22
2023-03-17T05:27:54.770Z,99340.91
2023-03-17T05:28:36.607Z,99364.50
2023-03-17T05:29:18.390Z,99360.94
2023-03-17T05:30:00.142Z,99344.97
2023-03-17T05:30:43.338Z,99361.16
2023-03-17T05:31:25.060Z,99357.28
2023-03-17T05:32:07.523Z,99362.84
2023-03-17T05:32:49.373Z,99354.28
2023-03-17T05:33:31.140Z,99351.53
2023-03-17T05:34:13.366Z,99365.09
2023-03-17T05:34:55.188Z,99368.00
2023-03-17T05:35:37.291Z,99346.59
2023-03-17T05:36:19.417Z,99326.81
2023-03-17T05:37:01.291Z,99349.50
2023-03-17T05:37:43.587Z,99357.19
2023-03-17T05:38:25.409Z,99344.47
2023-03-17T05:39:07.761Z,99352.03
2023-03-17T05:39:49.572Z,99345.03
2023-03-17T05:40:31.614Z,99370.38
2023-03-17T05:41:13.594Z,99365.88
2023-03-17T05:41:56.987Z,99372.63
2023-03-17T05:42:39.229Z,99373.81
2023-03-17T05:43:21.644Z,99374.78
2023-03-17T05:44:03.509Z,99368.72
2023-03-17T05:44:45.327Z,99356.59
2023-03-17T05:45:27.238Z,99342.28
2023-03-17T05:46:09.329Z,99360.56
2023-03-17T05:46:51.278Z,99350.75
2023-03-17T05:47:33.548Z,99365.28
2023-03-17T05:48:15.823Z,99365.81
2023-03-17T05:48:57.584Z,99361.69
2023-03-17T05:49:39.402Z,99336.53
2023-03-17T05:50:21.577Z,99365.81
2023-03-17T05:51:03.713Z,99362.75
2023-03-17T05:51:45.477Z,99358.84
2023-03-17T05:52:28.135Z,99360.22
2023-03-17T05:53:10.567Z,99352.72
2023-03-17T05:53:52.282Z,99361.47
2023-03-17T05:54:34.039Z,99353.31
2023-03-17T05:55:16.144Z,99363.78
2023-03-17T05:55:57.984Z,99347.84
2023-03-17T05:56:40.385Z,99361.63
2023-03-17T05:57:22.475Z,99365.13
2023-03-17T05:58:06.006Z,99371.47
2023-03-17T05:58:47.824Z,99353.63
2023-03-17T05:59:30.047Z,99349.81
2023-03-17T06:00:13.719Z,99374.97
2023-03-17T06:00:56.247Z,99364.44
2023-03-17T06:01:37.943Z,99357.03
2023-03-17T06:02:20.920Z,99365.34
2023-03-17T06:03:03.897Z,99375.19
2023-03-17T06:03:45.872Z,99361.63
2023-03-17T06:04:27.759Z,99366.84
2023-03-17T06:05:09.779Z,99384.91
2023-03-17T06:05:51.756Z,99365.53
2023-03-17T06:06:33.997Z,99370.31
2023-03-17T06:07:15.860Z,99373.75
2023-03-17T06:07:57.677Z,99380.88
2023-03-17T06:08:39.465Z,99391.59
2023-03-17T06:09:21.228Z,99373.56
2023-03-17T06:10:03.746Z,99363.09
2023-03-17T06:10:45.771Z,99360.31
2023-03-17T06:11:27.769Z,99383.94
2023-03-17T06:12:10.289Z,99365.75
2023-03-17T06:12:52.149Z,99364.03
2023-03-17T06:13:34.204Z,99366.56
2023-03-17T06:14:16.125Z,99388.13
2023-03-17T06:14:57.842Z,99371.53
2023-03-17T06:15:39.506Z,99375.09
2023-03-17T06:16:21.321Z,99390.88
2023-03-17T06:17:03.124Z,99385.84
2023-03-17T06:17:45.062Z,99389.41
2023-03-17T06:18:27.041Z,99376.94
2023-03-17T06:19:08.783Z,99390.28
2023-03-17T06:19:50.676Z,99370.06
2023-03-17T06:20:34.209Z,99388.22
2023-03-17T06:21:16.344Z,99366.25
2023-03-17T06:21:58.400Z,99387.22
2023-03-17T06:22:48.926Z,99389.75
2023-03-17T06:23:42.335Z,99378.25
2023-03-17T06:24:24.005Z,99380.88
2023-03-17T06:25:06.406Z,99380.50
2023-03-17T06:25:48.079Z,99374.00
2023-03-17T06:26:29.769Z,99393.59
2023-03-17T06:27:12.979Z,99385.22
2023-03-17T06:27:56.113Z,99382.81
2023-03-17T06:28:37.916Z,99398.16
2023-03-17T06:29:19.844Z,99379.28
2023-03-17T06:30:01.768Z,99380.69
2023-03-17T06:30:43.505Z,99379.06
2023-03-17T06:31:25.454Z,99381.22
2023-03-17T06:32:19.758Z,99377.75
2023-03-17T06:33:03.420Z,99363.91
2023-03-17T06:33:45.289Z,99378.38
2023-03-17T06:34:27.447Z,99387.56
2023-03-17T06:35:09.502Z,99382.94
2023-03-17T06:35:51.738Z,99376.00
2023-03-17T06:36:33.779Z,99377.13
2023-03-17T06:37:16.491Z,99368.00
2023-03-17T06:37:58.252Z,99372.94
2023-03-17T06:38:40.152Z,99363.19
2023-03-17T06:39:22.210Z,99346.88
2023-03-17T06:40:05.764Z,99358.56
2023-03-17T06:40:47.929Z,99370.75
2023-03-17T06:41:29.861Z,99366.13
2023-03-17T06:42:11.921Z,99353.81
2023-03-17T06:42:53.689Z,99347.94
2023-03-17T06:43:36.219Z,99349.13
2023-03-17T06:44:18.046Z,99346.78
2023-03-17T06:44:59.753Z,99345.19
2023-03-17T06:45:42.036Z,99336.88
2023-03-17T06:46:23.826Z,99349.13
2023-03-17T06:47:05.769Z,99361.16
2023-03-17T06:47:47.726Z,99354.28
2023-03-17T06:48:29.457Z,99370.06
2023-03-17T06:49:13.550Z,99373.81
2023-03-17T06:49:55.368Z,99350.56
2023-03-17T06:50:37.277Z,99369.22
2023-03-17T06:51:19.096Z,99376.25
2023-03-17T06:52:00.763Z,99378.69
2023-03-17T06:52:42.944Z,99371.41
2023-03-17T06:53:25.182Z,99385.00
2023-03-17T06:54:08.639Z,99385.28
2023-03-17T06:54:50.336Z,99375.56
2023-03-17T06:55:33.373Z,99376.41
2023-03-17T06:56:29.208Z,99368.28
2023-03-17T06:57:12.478Z,99376.84
2023-03-17T06:57:54.319Z,99382.81
2023-03-17T06:58:36.224Z,99373.91
2023-03-17T06:59:18.725Z,99377.03
2023-03-17T07:00:00.675Z,99381.25
2023-03-17T07:00:43.150Z,99356.59
2023-03-17T07:01:27.295Z,99379.84
2023-03-17T07:02:11.753Z,99383.09
2023-03-17T07:02:53.774Z,99396.97
2023-03-17T07:03:37.444Z,99398.66
2023-03-17T07:04:20.927Z,99392.50
2023-03-17T07:05:04.654Z,99381.81
2023-03-17T07:05:46.858Z,99375.13
2023-03-17T07:06:28.661Z,99387.84
2023-03-17T07:07:10.864Z,99389.88
2023-03-17T07:07:52.692Z,99370.00
2023-03-17T07:08:36.140Z,99374.50
2023-03-17T07:09:17.824Z,99378.50
2023-03-17T07:09:59.575Z,99386.75
2023-03-17T07:10:43.805Z,99387.09
2023-03-17T07:11:26.287Z,99388.44
2023-03-17T07:12:08.473Z,99404.38
2023-03-17T07:12:50.454Z,99398.47
2023-03-17T07:13:35.530Z,99404.72
2023-03-17T07:14:17.238Z,99393.88
2023-03-17T07:14:59.276Z,99399.47
2023-03-17T07:15:40.955Z,99406.59
2023-03-17T07:16:23.642Z,99401.50
2023-03-17T07:17:06.396Z,99405.31
2023-03-17T07:17:48.313Z,99388.34
2023-03-17T07:18:33.898Z,99406.06
2023-03-17T07:19:16.242Z,99392.59
2023-03-17T07:19:57.895Z,99384.53
2023-03-17T07:20:40.429Z,99390.09
2023-03-17T07:21:22.147Z,99388.13
2023-03-17T07:22:03.923Z,99395.69
2023-03-17T07:22:45.705Z,99373.13
2023-03-17T07:23:29.802Z,99401.88
2023-03-17T07:24:14.627Z,99394.78
2023-03-17T07:24:56.517Z,99397.06
2023-03-17T07:25:41.969Z,99385.72
2023-03-17T07:26:23.738Z,99386.63
2023-03-17T07:27:06.142Z,99381.69
2023-03-17T07:27:48.275Z,99392.50
2023-03-17T07:28:32.615Z,99402.16
2023-03-17T07:29:17.421Z,99387.16
2023-03-17T07:30:02.248Z,99386.94
2023-03-17T07:30:46.869Z,99383.81
2023-03-17T07:31:29.018Z,99408.88
2023-03-17T07:32:11.340Z,99417.66
2023-03-17T07:32:53.950Z,99390.91
2023-03-17T07:33:35.710Z,99404.47
2023-03-17T07:34:17.962Z,99406.44
2023-03-17T07:34:59.782Z,99391.72
2023-03-17T07:35:42.608Z,99390.72
2023-03-17T07:36:25.023Z,99402.88
2023-03-17T07:37:07.032Z,99390.28
2023-03-17T07:37:49.080Z,99402.31
2023-03-17T07:38:30.815Z,99394.94
2023-03-17T07:39:12.997Z,99401.78
2023-03-17T07:39:54.838Z,99389.75
2023-03-17T07:40:36.632Z,99391.47
2023-03-17T07:41:18.403Z,99391.75
2023-03-17T07:42:00.229Z,99382.63
2023-03-17T07:42:42.211Z,99384.53
2023-03-17T07:43:24.068Z,99382.41
2023-03-17T07:44:05.751Z,99392.00
2023-03-17T07:44:47.682Z,99396.91
2023-03-17T07:45:29.617Z,99398.56
2023-03-17T07:46:12.775Z,99388.09
2023-03-17T07:46:54.801Z,99380.16
2023-03-17T07:47:36.521Z,99395.75
2023-03-17T07:48:18.938Z,99384.88
2023-03-17T07:49:01.035Z,99390.91
2023-03-17T07:49:43.012Z,99396.63
2023-03-17T07:50:24.994Z,99381.69
2023-03-17T07:51:07.387Z,99381.88
2023-03-17T07:51:49.254Z,99394.44
2023-03-17T07:52:31.045Z,99393.81
2023-03-17T07:53:12.980Z,99391.75
2023-03-17T07:54:03.097Z,99383.06
2023-03-17T07:54:45.105Z,99373.44
2023-03-17T07:55:27.372Z,99390.38
2023-03-17T07:56:09.691Z,99378.06
2023-03-17T07:56:51.370Z,99365.84
2023-03-17T07:57:33.306Z,99373.97
2023-03-17T07:58:15.921Z,99372.91
2023-03-17T07:58:59.100Z,99365.69
2023-03-17T07:59:41.682Z,99369.97
2023-03-17T08:00:24.192Z,99384.53
2023-03-17T08:01:05.995Z,99396.94
2023-03-17T08:01:47.852Z,99392.28
2023-03-17T08:02:29.828Z,99395.41
2023-03-17T08:03:11.700Z,99392.38
2023-03-17T08:03:54.662Z,99390.75
2023-03-17T08:04:36.407Z,99378.25
2023-03-17T08:05:18.909Z,99396.94
2023-03-17T08:06:01.013Z,99397.03
2023-03-17T08:06:42.976Z,99388.47
2023-03-17T08:07:24.774Z,99401.09
2023-03-17T08:08:06.685Z,99403.25
2023-03-17T08:08:48.612Z,99406.22
2023-03-17T08:09:30.701Z,99405.97
2023-03-17T08:10:13.261Z,99414.78
2023-03-17T08:11:02.311Z,99405.84
2023-03-17T08:11:43.981Z,99409.16
2023-03-17T08:12:25.926Z,99414.69
2023-03-17T08:13:07.732Z,99408.06
2023-03-17T08:13:49.965Z,99407.00
2023-03-17T08:14:31.976Z,99412.97
2023-03-17T08:15:13.843Z,99415.09
2023-03-17T08:15:56.088Z,99389.31
2023-03-17T08:16:38.133Z,99414.91
2023-03-17T08:17:19.908Z,99415.53
2023-03-17T08:18:01.697Z,99411.81
2023-03-17T08:18:43.584Z,99407.41
2023-03-17T08:19:25.506Z,99410.06
2023-03-17T08:20:24.417Z,99410.34
2023-03-17T08:21:08.971Z,99407.53
2023-03-17T08:21:59.253Z,99405.97
2023-03-17T08:22:56.043Z,99409.34
2023-03-17T08:23:47.102Z,99398.19
2023-03-17T08:24:39.794Z,99393.94
2023-03-17T08:25:30.981Z,99420.75
2023-03-17T08:26:25.357Z,99399.13
2023-03-17T08:27:12.793Z,99400.16
2023-03-17T08:27:58.788Z,99429.56
2023-03-17T08:29:13.984Z,99424.41